Time;durP1;ratioP1;P1;durP2;ratioP2;P2;SDS_P1;SDS_P2;PMS_P1;PMS_P2;Temp;Humidity;BMP_temperature;BMP_pressure;BME280_temperature;BME280_humidity;BME280_pressure;Samples;Min_cycle;Max_cycle;Signal;HPM_P1;HPM_P2
2023/09/17 00:00:30;;;;;;;12.13;10.90;;;17.00;99.90;;;;;;5033443;28;20451;-59
2023/09/17 00:02:57;;;;;;;13.13;10.80;;;17.00;99.90;;;;;;5033937;28;20447;-60
2023/09/17 00:05:25;;;;;;;13.27;11.97;;;17.00;99.90;;;;;;5033541;28;20442;-60
2023/09/17 00:07:51;;;;;;;14.10;12.10;;;17.00;99.90;;;;;;5032855;28;20443;-60
2023/09/17 00:10:18;;;;;;;12.17;10.87;;;17.00;99.90;;;;;;5032980;28;20450;-60
2023/09/17 00:12:45;;;;;;;12.13;10.90;;;17.10;99.90;;;;;;5033274;28;20824;-61
2023/09/17 00:15:12;;;;;;;13.07;11.50;;;17.10;99.90;;;;;;5033084;28;20821;-58
2023/09/17 00:17:38;;;;;;;13.00;11.73;;;17.10;99.90;;;;;;5033078;28;20481;-61
2023/09/17 00:20:10;;;;;;;12.13;11.03;;;17.10;99.90;;;;;;5056785;22;21056;-60
2023/09/17 00:22:39;;;;;;;14.20;11.70;;;17.10;99.90;;;;;;5032788;28;20840;-61
2023/09/17 00:25:06;;;;;;;12.87;11.20;;;17.10;99.90;;;;;;5032810;28;20523;-60
2023/09/17 00:27:33;;;;;;;12.20;11.13;;;17.10;99.90;;;;;;5034101;28;20439;-60
2023/09/17 00:30:00;;;;;;;14.17;11.77;;;17.10;99.90;;;;;;5036821;28;20460;-61
2023/09/17 00:32:27;;;;;;;13.33;12.23;;;17.00;99.90;;;;;;5036549;28;20938;-61
2023/09/17 00:34:54;;;;;;;12.90;11.70;;;17.00;99.90;;;;;;5036675;28;20453;-60
2023/09/17 00:37:21;;;;;;;12.70;11.40;;;17.00;99.90;;;;;;5036547;28;20479;-60
2023/09/17 00:39:49;;;;;;;13.57;12.17;;;17.00;99.90;;;;;;5036496;28;20540;-60
2023/09/17 00:42:15;;;;;;;14.93;12.83;;;17.00;99.90;;;;;;5036813;28;20445;-60
2023/09/17 00:44:42;;;;;;;12.70;11.50;;;17.00;99.90;;;;;;5036596;28;20443;-60
2023/09/17 00:47:10;;;;;;;14.70;13.30;;;17.00;99.90;;;;;;5036880;28;20444;-61
2023/09/17 00:49:37;;;;;;;15.53;11.43;;;17.00;99.90;;;;;;5036379;28;20450;-60
2023/09/17 00:52:10;;;;;;;13.23;12.03;;;17.00;99.90;;;;;;5036797;28;20442;-60
2023/09/17 00:54:36;;;;;;;12.40;11.20;;;17.00;99.90;;;;;;5036451;28;20864;-60
2023/09/17 00:57:05;;;;;;;13.27;12.00;;;17.00;99.90;;;;;;5035957;28;21035;-62
2023/09/17 00:59:32;;;;;;;13.50;10.93;;;17.00;99.90;;;;;;5036033;28;20964;-62
2023/09/17 01:01:58;;;;;;;13.33;12.03;;;17.00;99.90;;;;;;5036010;28;20447;-61
2023/09/17 01:04:27;;;;;;;12.10;11.07;;;17.00;99.90;;;;;;5036172;28;21040;-60
2023/09/17 01:06:56;;;;;;;12.53;11.33;;;17.00;99.90;;;;;;5036914;28;20490;-60
2023/09/17 01:09:23;;;;;;;12.47;10.57;;;17.00;99.90;;;;;;5036326;28;20460;-62
2023/09/17 01:11:52;;;;;;;12.90;11.47;;;17.00;99.90;;;;;;5036205;28;20443;-60
2023/09/17 01:14:21;;;;;;;13.33;12.10;;;17.00;99.90;;;;;;5035903;28;20583;-60
2023/09/17 01:16:49;;;;;;;13.27;11.90;;;16.90;99.90;;;;;;5036223;28;20501;-61
2023/09/17 01:19:19;;;;;;;12.20;11.10;;;16.90;99.90;;;;;;5036257;28;20445;-60
2023/09/17 01:21:52;;;;;;;13.40;11.33;;;16.90;99.90;;;;;;5035756;28;20502;-60
2023/09/17 01:24:28;;;;;;;12.17;10.87;;;16.90;99.90;;;;;;5036313;28;20428;-60
2023/09/17 01:27:03;;;;;;;12.03;10.93;;;16.90;99.90;;;;;;5036187;28;20427;-60
2023/09/17 01:29:33;;;;;;;12.13;10.90;;;16.80;99.90;;;;;;5036056;28;20436;-61
2023/09/17 01:31:59;;;;;;;12.03;10.90;;;16.80;99.90;;;;;;5036255;28;20786;-61
2023/09/17 01:34:27;;;;;;;12.00;10.40;;;16.80;99.90;;;;;;5036188;28;20540;-60
2023/09/17 01:36:58;;;;;;;12.63;11.43;;;16.70;99.90;;;;;;5035751;28;20523;-60
2023/09/17 01:39:28;;;;;;;16.23;11.90;;;16.70;99.90;;;;;;5034941;28;20901;-61
2023/09/17 01:41:58;;;;;;;11.77;10.67;;;16.70;99.90;;;;;;5036356;28;20915;-60
2023/09/17 01:44:29;;;;;;;12.30;11.10;;;16.60;99.90;;;;;;5036455;28;20482;-60
2023/09/17 01:46:57;;;;;;;11.10;10.00;;;16.60;99.90;;;;;;5038515;28;20427;-61
2023/09/17 01:49:24;;;;;;;12.07;11.03;;;16.60;99.90;;;;;;5040609;28;20488;-60
2023/09/17 01:51:52;;;;;;;11.80;10.70;;;16.60;99.90;;;;;;5042477;28;20448;-61
2023/09/17 01:54:19;;;;;;;12.47;11.37;;;16.50;99.90;;;;;;5047669;28;20447;-60
2023/09/17 01:56:47;;;;;;;11.30;10.20;;;16.50;99.90;;;;;;5044996;28;20447;-61
2023/09/17 01:59:14;;;;;;;11.37;10.27;;;16.50;99.90;;;;;;5042835;28;20506;-61
2023/09/17 02:01:43;;;;;;;12.00;10.90;;;16.60;99.90;;;;;;5043647;28;20485;-61
2023/09/17 02:04:10;;;;;;;12.03;10.83;;;16.60;99.90;;;;;;5041514;28;20621;-60
2023/09/17 02:06:37;;;;;;;12.67;11.47;;;16.60;99.90;;;;;;5036001;28;20493;-60
2023/09/17 02:09:05;;;;;;;11.63;10.57;;;16.70;99.90;;;;;;5035042;28;20466;-60
2023/09/17 02:11:32;;;;;;;11.80;10.70;;;16.70;99.90;;;;;;5035248;28;20475;-60
2023/09/17 02:13:59;;;;;;;12.37;11.27;;;16.70;99.90;;;;;;5034950;28;20450;-61
2023/09/17 02:16:25;;;;;;;13.50;11.50;;;16.80;99.90;;;;;;5034906;28;20455;-60
2023/09/17 02:18:54;;;;;;;12.23;10.93;;;16.80;99.90;;;;;;5034642;28;20532;-60
2023/09/17 02:21:21;;;;;;;11.67;10.67;;;16.80;99.90;;;;;;5034346;28;20490;-61
2023/09/17 02:23:48;;;;;;;12.03;11.00;;;16.90;99.90;;;;;;5034829;28;20447;-60
2023/09/17 02:26:15;;;;;;;11.27;10.27;;;16.90;99.90;;;;;;5034505;28;20996;-61
2023/09/17 02:28:42;;;;;;;11.57;10.37;;;16.90;99.90;;;;;;5034472;28;20946;-61
2023/09/17 02:31:09;;;;;;;10.37;9.43;;;16.90;99.90;;;;;;5034232;28;20468;-62
2023/09/17 02:33:36;;;;;;;11.67;10.53;;;17.00;99.90;;;;;;5034955;28;20454;-60
2023/09/17 02:36:04;;;;;;;11.13;9.67;;;17.00;99.90;;;;;;5034611;28;20533;-61
2023/09/17 02:38:30;;;;;;;11.50;10.40;;;17.00;99.90;;;;;;5034368;28;20582;-60
2023/09/17 02:40:57;;;;;;;11.07;9.97;;;17.00;99.90;;;;;;5034604;28;20467;-62
2023/09/17 02:43:24;;;;;;;11.60;10.40;;;17.10;99.90;;;;;;5034591;28;20444;-59
2023/09/17 02:45:53;;;;;;;11.37;10.37;;;17.10;99.90;;;;;;5035016;28;20455;-60
2023/09/17 02:48:21;;;;;;;11.33;10.23;;;17.10;99.90;;;;;;5034428;28;20493;-60
2023/09/17 02:50:47;;;;;;;11.13;9.93;;;17.10;99.90;;;;;;5033385;28;20463;-62
2023/09/17 02:53:16;;;;;;;12.00;10.43;;;17.10;99.90;;;;;;5036357;28;20444;-60
2023/09/17 02:55:43;;;;;;;11.53;10.07;;;17.10;99.90;;;;;;5037368;28;20824;-61
2023/09/17 02:58:10;;;;;;;11.47;10.37;;;17.10;99.90;;;;;;5036922;28;20486;-61
2023/09/17 03:00:38;;;;;;;11.10;10.00;;;17.20;99.90;;;;;;5036921;28;20469;-61
2023/09/17 03:03:06;;;;;;;10.50;9.50;;;17.20;99.90;;;;;;5036943;28;20884;-61
2023/09/17 03:05:33;;;;;;;11.50;10.53;;;17.20;99.90;;;;;;5036274;28;20499;-61
2023/09/17 03:08:00;;;;;;;12.73;11.40;;;17.20;99.90;;;;;;5035983;28;20440;-61
2023/09/17 03:10:28;;;;;;;11.03;10.03;;;17.20;99.90;;;;;;5034987;28;20462;-61
2023/09/17 03:12:55;;;;;;;11.53;10.43;;;17.20;99.90;;;;;;5035512;28;20453;-61
2023/09/17 03:15:22;;;;;;;11.87;10.77;;;17.20;99.90;;;;;;5035535;28;20447;-62
2023/09/17 03:17:49;;;;;;;13.00;11.80;;;17.10;99.90;;;;;;5034126;28;20556;-60
2023/09/17 03:20:18;;;;;;;11.00;10.00;;;17.10;99.90;;;;;;5033758;28;20570;-59
2023/09/17 03:22:45;;;;;;;10.53;9.53;;;17.10;99.90;;;;;;5034585;28;20447;-61
2023/09/17 03:25:12;;;;;;;11.47;10.37;;;17.10;99.90;;;;;;5035744;28;20447;-61
2023/09/17 03:27:41;;;;;;;10.67;9.67;;;17.10;99.90;;;;;;5035832;28;20450;-60
2023/09/17 03:30:09;;;;;;;12.10;9.80;;;17.10;99.90;;;;;;5036058;28;20461;-61
2023/09/17 03:32:36;;;;;;;10.40;9.40;;;17.00;99.90;;;;;;5037123;28;20440;-60
2023/09/17 03:35:04;;;;;;;10.90;9.90;;;17.00;99.90;;;;;;5038183;28;20475;-61
2023/09/17 03:37:31;;;;;;;12.00;10.30;;;17.00;99.90;;;;;;5039181;28;20547;-60
2023/09/17 03:40:10;;;;;;;11.27;10.27;;;17.00;99.90;;;;;;5038706;28;20471;-61
2023/09/17 03:42:37;;;;;;;12.67;10.50;;;16.90;99.90;;;;;;5035340;28;20867;-61
2023/09/17 03:45:09;;;;;;;11.93;10.77;;;17.00;99.90;;;;;;5034641;28;20943;-60
2023/09/17 03:47:36;;;;;;;14.00;10.40;;;16.90;99.90;;;;;;5033627;28;20477;-61
2023/09/17 03:50:04;;;;;;;11.30;10.30;;;16.90;99.90;;;;;;5033326;28;20470;-61
2023/09/17 03:52:33;;;;;;;11.83;10.67;;;16.90;99.90;;;;;;5033267;28;20550;-61
2023/09/17 03:55:01;;;;;;;11.90;10.40;;;16.90;99.90;;;;;;5033365;28;20437;-61
2023/09/17 03:57:28;;;;;;;10.53;9.53;;;16.90;99.90;;;;;;5033457;28;20448;-60
2023/09/17 03:59:55;;;;;;;13.53;10.30;;;16.90;99.90;;;;;;5032944;28;20983;-61
2023/09/17 04:02:23;;;;;;;11.30;10.20;;;16.90;99.90;;;;;;5033420;28;20450;-60
2023/09/17 04:04:50;;;;;;;11.13;10.13;;;16.80;99.90;;;;;;5033279;28;20801;-61
2023/09/17 04:07:16;;;;;;;11.33;10.33;;;16.80;99.90;;;;;;5033334;28;20797;-61
2023/09/17 04:12:15;;;;;;;12.23;10.97;;;16.80;99.90;;;;;;5091473;28;20627;-59
2023/09/17 04:14:42;;;;;;;10.77;9.70;;;16.80;99.90;;;;;;5091258;28;20449;-60
2023/09/17 04:17:09;;;;;;;10.70;9.63;;;16.80;99.90;;;;;;5090871;28;20445;-60
2023/09/17 04:19:36;;;;;;;12.70;11.50;;;16.80;99.90;;;;;;5090792;28;20446;-61
2023/09/17 04:22:03;;;;;;;11.83;10.83;;;16.80;99.90;;;;;;5091157;28;20437;-60
2023/09/17 04:24:31;;;;;;;11.13;10.00;;;16.90;99.90;;;;;;5090618;28;20440;-60
2023/09/17 04:26:58;;;;;;;12.40;11.20;;;16.80;99.90;;;;;;5091764;28;20491;-60
2023/09/17 04:29:26;;;;;;;12.10;11.00;;;16.80;99.90;;;;;;5091221;28;20459;-62
2023/09/17 04:31:53;;;;;;;11.50;10.50;;;16.90;99.90;;;;;;5092365;28;20480;-60
2023/09/17 04:34:20;;;;;;;11.93;10.93;;;16.90;99.90;;;;;;5101875;28;20451;-61
2023/09/17 04:36:47;;;;;;;12.43;11.27;;;16.90;99.90;;;;;;5106789;28;20453;-60
2023/09/17 04:39:14;;;;;;;11.30;10.10;;;16.90;99.90;;;;;;5106256;28;20451;-60
2023/09/17 04:41:41;;;;;;;11.30;10.30;;;16.90;99.90;;;;;;5106482;28;20532;-60
2023/09/17 04:44:10;;;;;;;12.03;10.87;;;16.90;99.90;;;;;;5107749;28;20520;-60
2023/09/17 04:46:40;;;;;;;11.70;10.50;;;16.90;99.90;;;;;;5100272;28;20448;-60
2023/09/17 04:49:07;;;;;;;12.07;10.70;;;16.90;99.90;;;;;;5091364;28;20430;-60
2023/09/17 04:51:34;;;;;;;11.97;10.37;;;16.90;99.90;;;;;;5090052;28;20502;-60
2023/09/17 04:54:00;;;;;;;12.20;10.93;;;16.90;99.90;;;;;;5090095;28;20447;-60
2023/09/17 04:56:27;;;;;;;11.17;10.17;;;16.90;99.90;;;;;;5090088;28;20881;-60
2023/09/17 04:58:54;;;;;;;12.10;10.90;;;16.90;99.90;;;;;;5090002;28;20449;-60
2023/09/17 05:01:21;;;;;;;11.00;9.87;;;16.90;99.90;;;;;;5089654;28;20467;-59
2023/09/17 05:03:49;;;;;;;10.93;9.97;;;16.90;99.90;;;;;;5089732;28;20831;-60
2023/09/17 05:06:16;;;;;;;12.27;10.90;;;16.90;99.90;;;;;;5090149;28;20438;-60
2023/09/17 05:08:43;;;;;;;12.60;11.40;;;16.90;99.90;;;;;;5089961;28;20460;-61
2023/09/17 05:11:09;;;;;;;10.97;9.77;;;17.00;99.90;;;;;;5089415;28;20485;-60
2023/09/17 05:13:36;;;;;;;11.13;10.13;;;17.00;99.90;;;;;;5089437;28;20825;-59
2023/09/17 05:16:04;;;;;;;11.73;10.13;;;17.00;99.90;;;;;;5089969;28;20445;-60
2023/09/17 05:18:31;;;;;;;11.63;10.43;;;17.00;99.90;;;;;;5089933;28;20446;-59
2023/09/17 05:20:59;;;;;;;11.60;10.40;;;17.10;99.90;;;;;;5090138;28;20469;-60
2023/09/17 05:23:26;;;;;;;10.53;9.60;;;17.10;99.90;;;;;;5076730;28;20942;-61
2023/09/17 05:25:55;;;;;;;10.70;9.80;;;17.10;99.90;;;;;;5076125;28;20471;-60
2023/09/17 05:28:21;;;;;;;11.23;10.23;;;17.10;99.90;;;;;;5076166;28;20453;-60
2023/09/17 05:30:48;;;;;;;12.23;11.00;;;17.20;99.90;;;;;;5075611;28;20978;-61
2023/09/17 05:33:15;;;;;;;12.00;10.70;;;17.20;99.90;;;;;;5076184;28;20441;-60
2023/09/17 05:35:42;;;;;;;11.40;10.17;;;17.20;99.90;;;;;;5076060;28;20834;-60
2023/09/17 05:38:10;;;;;;;12.30;11.10;;;17.20;99.90;;;;;;5075590;28;20448;-60
2023/09/17 05:40:37;;;;;;;12.70;11.60;;;17.30;99.90;;;;;;5075664;28;20462;-60
2023/09/17 05:43:04;;;;;;;11.90;10.80;;;17.30;99.90;;;;;;5075875;28;20452;-61
2023/09/17 05:45:31;;;;;;;12.13;11.03;;;17.30;99.90;;;;;;5076182;28;20449;-61
2023/09/17 05:47:58;;;;;;;11.23;10.23;;;17.40;99.90;;;;;;5076199;28;20804;-61
2023/09/17 05:50:25;;;;;;;11.40;9.73;;;17.40;99.90;;;;;;5075716;28;20521;-62
2023/09/17 05:52:52;;;;;;;11.30;10.20;;;17.50;99.90;;;;;;5075419;28;20438;-62
2023/09/17 05:55:20;;;;;;;12.50;10.07;;;17.50;99.90;;;;;;5075713;28;20458;-62
2023/09/17 05:57:47;;;;;;;10.47;9.57;;;17.60;99.90;;;;;;5076344;28;20944;-61
2023/09/17 06:00:14;;;;;;;11.10;9.97;;;17.70;99.90;;;;;;5075831;28;20462;-61
2023/09/17 06:02:41;;;;;;;11.57;10.47;;;17.80;99.90;;;;;;5075407;28;20466;-61
2023/09/17 06:05:09;;;;;;;12.17;11.07;;;17.80;99.90;;;;;;5075584;28;20453;-61
2023/09/17 06:07:35;;;;;;;12.83;10.20;;;17.90;99.90;;;;;;5075438;28;20458;-61
2023/09/17 06:10:03;;;;;;;10.87;9.63;;;18.00;99.90;;;;;;5075515;28;20462;-61
2023/09/17 06:12:32;;;;;;;11.20;10.10;;;18.00;99.90;;;;;;5074892;28;20472;-61
2023/09/17 06:14:59;;;;;;;10.60;9.50;;;18.10;99.90;;;;;;5074997;28;20442;-61
2023/09/17 06:17:26;;;;;;;10.07;9.17;;;18.20;99.90;;;;;;5074906;28;20822;-61
2023/09/17 06:19:53;;;;;;;11.07;10.07;;;18.20;99.90;;;;;;5074442;28;20474;-61
2023/09/17 06:22:19;;;;;;;10.57;9.60;;;18.30;99.90;;;;;;5074303;28;20444;-61
2023/09/17 06:24:46;;;;;;;10.53;9.60;;;18.30;99.90;;;;;;5074601;28;20443;-61
2023/09/17 06:27:13;;;;;;;10.97;9.50;;;18.30;99.90;;;;;;5074488;28;20471;-61
2023/09/17 06:29:41;;;;;;;9.77;8.87;;;18.40;99.90;;;;;;5074230;28;20446;-61
2023/09/17 06:32:08;;;;;;;9.27;8.47;;;18.50;99.90;;;;;;5074229;28;20486;-61
2023/09/17 06:34:35;;;;;;;10.77;9.67;;;18.60;99.90;;;;;;5073656;28;20447;-61
2023/09/17 06:37:03;;;;;;;9.53;8.67;;;18.60;99.90;;;;;;5074787;28;20444;-61
2023/09/17 06:39:30;;;;;;;9.17;8.27;;;18.70;99.90;;;;;;5074294;28;20533;-61
2023/09/17 06:41:56;;;;;;;10.17;9.23;;;18.80;99.90;;;;;;5074626;28;20942;-61
2023/09/17 06:44:24;;;;;;;11.37;9.27;;;18.90;99.90;;;;;;5074446;28;20436;-61
2023/09/17 06:46:52;;;;;;;9.10;8.30;;;19.00;99.90;;;;;;5074553;28;20860;-61
2023/09/17 06:49:19;;;;;;;9.60;8.70;;;19.10;99.90;;;;;;5074580;28;20450;-62
2023/09/17 06:51:46;;;;;;;9.37;8.20;;;19.10;99.90;;;;;;5074727;28;20594;-61
2023/09/17 06:54:13;;;;;;;9.50;8.60;;;19.20;99.90;;;;;;5074323;28;20440;-61
2023/09/17 06:56:39;;;;;;;9.33;8.33;;;19.30;99.90;;;;;;5073876;28;20452;-61
2023/09/17 06:59:06;;;;;;;9.40;8.40;;;19.40;99.90;;;;;;5073645;28;20435;-61
2023/09/17 07:01:33;;;;;;;8.13;7.33;;;19.50;99.90;;;;;;5073816;28;20459;-61
2023/09/17 07:04:01;;;;;;;9.27;8.47;;;19.50;99.90;;;;;;5073876;28;20452;-61
2023/09/17 07:06:28;;;;;;;8.67;7.80;;;19.60;99.90;;;;;;5073975;28;20800;-61
2023/09/17 07:08:57;;;;;;;8.57;7.87;;;19.70;99.90;;;;;;5074048;28;20441;-61
2023/09/17 07:11:23;;;;;;;7.80;7.10;;;19.80;99.90;;;;;;5073435;28;20492;-61
2023/09/17 07:13:50;;;;;;;8.03;7.33;;;19.90;99.90;;;;;;5073971;28;20519;-61
2023/09/17 07:16:18;;;;;;;7.80;7.10;;;20.00;99.90;;;;;;5075535;28;20435;-61
2023/09/17 07:18:45;;;;;;;7.60;7.00;;;20.10;99.90;;;;;;5077427;28;20964;-61
2023/09/17 07:21:13;;;;;;;7.83;7.13;;;20.20;99.90;;;;;;5076744;28;20870;-61
2023/09/17 07:23:40;;;;;;;7.57;6.77;;;20.40;99.90;;;;;;5076941;28;20481;-61
2023/09/17 07:26:06;;;;;;;8.00;7.30;;;20.50;99.90;;;;;;5076520;28;20448;-62
2023/09/17 07:28:33;;;;;;;7.87;7.13;;;20.70;99.90;;;;;;5075726;28;20447;-62
2023/09/17 07:31:00;;;;;;;7.60;6.80;;;20.80;99.90;;;;;;5073724;28;20453;-61
2023/09/17 07:33:27;;;;;;;7.07;6.37;;;20.90;99.90;;;;;;5073272;28;20454;-61
2023/09/17 07:35:53;;;;;;;7.43;6.50;;;21.00;99.90;;;;;;5073300;28;20450;-61
2023/09/17 07:38:21;;;;;;;7.20;6.50;;;21.10;99.90;;;;;;5073137;28;20453;-61
2023/09/17 07:40:48;;;;;;;7.27;6.53;;;21.20;99.90;;;;;;5073032;28;20461;-61
2023/09/17 07:43:15;;;;;;;6.93;6.30;;;21.20;99.90;;;;;;5072839;28;20954;-61
2023/09/17 07:45:42;;;;;;;9.50;6.37;;;21.30;99.90;;;;;;5072613;28;20445;-61
2023/09/17 07:48:08;;;;;;;8.23;7.47;;;21.40;99.90;;;;;;5072677;28;20446;-63
2023/09/17 07:50:35;;;;;;;6.80;6.30;;;21.50;99.90;;;;;;5072523;28;20476;-61
2023/09/17 07:53:02;;;;;;;7.20;6.50;;;21.60;99.90;;;;;;5072723;28;20950;-61
2023/09/17 07:55:30;;;;;;;7.10;6.40;;;21.70;99.90;;;;;;5072906;28;20446;-62
2023/09/17 07:57:57;;;;;;;7.27;6.57;;;21.80;99.90;;;;;;5072621;28;20536;-62
2023/09/17 08:00:24;;;;;;;6.97;6.37;;;21.80;99.90;;;;;;5072593;28;20458;-61
2023/09/17 08:02:51;;;;;;;7.53;6.43;;;21.80;99.90;;;;;;5073031;28;20437;-61
2023/09/17 08:05:18;;;;;;;6.97;6.30;;;21.70;99.90;;;;;;5072603;28;20541;-61
2023/09/17 08:07:45;;;;;;;7.17;6.57;;;21.70;99.90;;;;;;5072940;28;20447;-61
2023/09/17 08:10:12;;;;;;;7.13;6.43;;;21.70;99.90;;;;;;5072248;28;20864;-62
2023/09/17 08:12:40;;;;;;;5.87;5.37;;;21.70;99.90;;;;;;5072554;28;20831;-61
2023/09/17 08:15:08;;;;;;;6.90;6.30;;;21.80;99.90;;;;;;5072707;28;20441;-61
2023/09/17 08:17:35;;;;;;;6.83;6.13;;;21.90;99.90;;;;;;5072645;28;20460;-61
2023/09/17 08:20:03;;;;;;;6.47;5.97;;;22.10;99.90;;;;;;5072765;28;20477;-62
2023/09/17 08:22:29;;;;;;;6.23;5.67;;;22.30;99.90;;;;;;5072346;28;20451;-62
2023/09/17 08:24:56;;;;;;;7.10;5.90;;;22.50;99.90;;;;;;5072543;28;20450;-63
2023/09/17 08:27:23;;;;;;;6.43;5.87;;;22.80;99.90;;;;;;5072731;28;20819;-62
2023/09/17 08:29:51;;;;;;;6.30;5.27;;;23.00;99.60;;;;;;5072461;28;20470;-62
2023/09/17 08:32:18;;;;;;;5.70;5.20;;;23.20;98.90;;;;;;5072419;28;20479;-62
2023/09/17 08:34:45;;;;;;;7.63;5.50;;;23.30;98.00;;;;;;5072165;28;20940;-62
2023/09/17 08:37:12;;;;;;;5.50;5.03;;;23.50;97.10;;;;;;5072602;28;20462;-62
2023/09/17 08:39:38;;;;;;;5.90;5.40;;;23.70;96.40;;;;;;5072213;28;20968;-63
2023/09/17 08:42:06;;;;;;;6.17;5.50;;;23.80;95.50;;;;;;5072503;28;20756;-62
2023/09/17 08:44:36;;;;;;;8.20;6.40;;;23.90;94.80;;;;;;5072381;28;20833;-63
2023/09/17 08:47:05;;;;;;;5.77;5.27;;;24.10;94.20;;;;;;5072897;28;20432;-62
2023/09/17 08:49:31;;;;;;;8.27;5.53;;;24.20;93.40;;;;;;5075907;28;20813;-63
2023/09/17 08:52:04;;;;;;;6.70;5.30;;;24.20;92.80;;;;;;5075944;28;20988;-63
2023/09/17 08:54:38;;;;;;;5.87;5.37;;;24.30;92.50;;;;;;5076330;28;20474;-62
2023/09/17 08:57:06;;;;;;;5.83;5.33;;;24.20;92.10;;;;;;5076599;28;20419;-62
2023/09/17 08:59:38;;;;;;;6.40;5.57;;;24.20;92.10;;;;;;5077439;28;20447;-63
2023/09/17 09:02:16;;;;;;;6.13;5.63;;;24.10;92.10;;;;;;5076423;28;20416;-62
2023/09/17 09:04:47;;;;;;;7.93;7.17;;;24.10;92.00;;;;;;5076204;28;20485;-62
2023/09/17 09:07:16;;;;;;;7.60;6.93;;;24.00;92.10;;;;;;5076227;28;20428;-63
2023/09/17 09:09:46;;;;;;;6.90;6.30;;;24.10;92.30;;;;;;5075810;28;20538;-62
2023/09/17 09:12:13;;;;;;;6.60;6.10;;;24.10;92.10;;;;;;5075972;28;20895;-62
2023/09/17 09:14:40;;;;;;;5.57;5.07;;;24.20;92.00;;;;;;5076127;28;20474;-62
2023/09/17 09:17:10;;;;;;;5.57;5.03;;;24.40;91.90;;;;;;5076023;28;20442;-62
2023/09/17 09:19:37;;;;;;;6.03;5.27;;;24.50;91.70;;;;;;5075433;28;20446;-63
2023/09/17 09:22:04;;;;;;;6.10;5.50;;;24.50;91.50;;;;;;5076125;28;20437;-62
2023/09/17 09:24:41;;;;;;;6.13;5.63;;;24.50;91.40;;;;;;5075694;28;20450;-62
2023/09/17 09:27:08;;;;;;;5.47;4.93;;;24.50;91.40;;;;;;5075706;28;20430;-63
2023/09/17 09:29:35;;;;;;;6.33;5.73;;;24.50;91.40;;;;;;5075731;28;20443;-62
2023/09/17 09:32:02;;;;;;;5.93;5.43;;;24.50;91.30;;;;;;5075452;28;20475;-62
2023/09/17 09:34:30;;;;;;;7.73;5.27;;;24.40;91.20;;;;;;5075763;28;20526;-62
2023/09/17 09:36:57;;;;;;;6.13;5.63;;;24.40;91.50;;;;;;5075761;28;20454;-63
2023/09/17 09:39:24;;;;;;;5.37;4.87;;;24.30;91.60;;;;;;5075810;28;20545;-62
2023/09/17 09:41:50;;;;;;;5.70;5.20;;;24.20;91.90;;;;;;5075669;28;20471;-63
2023/09/17 09:44:17;;;;;;;6.23;5.63;;;24.20;92.00;;;;;;5075632;28;20546;-62
2023/09/17 09:46:45;;;;;;;7.13;5.70;;;24.10;92.00;;;;;;5075943;28;20526;-63
2023/09/17 09:49:11;;;;;;;6.93;5.20;;;24.00;92.10;;;;;;5075529;28;20559;-62
2023/09/17 09:51:40;;;;;;;7.20;5.80;;;24.00;92.30;;;;;;5075862;28;20468;-62
2023/09/17 09:54:07;;;;;;;5.60;5.10;;;23.90;92.70;;;;;;5076325;28;20440;-63
2023/09/17 09:56:34;;;;;;;6.60;6.00;;;23.80;92.60;;;;;;5077018;28;20444;-62
2023/09/17 09:59:03;;;;;;;8.57;5.90;;;23.70;92.70;;;;;;5076627;28;20439;-63
2023/09/17 10:01:30;;;;;;;6.47;5.80;;;23.70;93.00;;;;;;5079346;28;20507;-62
2023/09/17 10:03:58;;;;;;;6.20;5.60;;;23.60;93.10;;;;;;5078956;28;20507;-63
2023/09/17 10:06:25;;;;;;;7.10;6.10;;;23.60;93.30;;;;;;5078413;28;20450;-62
2023/09/17 10:08:54;;;;;;;6.97;6.27;;;23.60;93.40;;;;;;5078669;28;20440;-63
2023/09/17 10:11:22;;;;;;;7.17;6.03;;;23.70;93.40;;;;;;5074332;28;20482;-62
2023/09/17 10:13:49;;;;;;;6.50;5.37;;;23.70;93.30;;;;;;5074675;28;20486;-62
2023/09/17 10:16:17;;;;;;;6.73;6.13;;;23.80;93.00;;;;;;5074374;28;20436;-62
2023/09/17 10:18:45;;;;;;;6.83;6.20;;;23.90;92.70;;;;;;5074390;28;20443;-63
2023/09/17 10:21:13;;;;;;;11.20;6.13;;;24.10;92.30;;;;;;5073676;28;20467;-62
2023/09/17 10:23:42;;;;;;;7.53;6.83;;;24.20;91.90;;;;;;5074709;28;20439;-62
2023/09/17 10:26:11;;;;;;;7.17;5.93;;;24.30;91.40;;;;;;5074544;28;20439;-62
2023/09/17 10:28:39;;;;;;;5.93;5.40;;;24.50;90.90;;;;;;5074562;28;20444;-62
2023/09/17 10:31:08;;;;;;;6.97;5.20;;;24.60;90.40;;;;;;5074246;28;20455;-62
2023/09/17 10:33:37;;;;;;;5.53;5.00;;;24.90;89.80;;;;;;5074002;28;20482;-61
2023/09/17 10:36:07;;;;;;;6.60;5.50;;;25.10;88.30;;;;;;5074012;28;20937;-62
2023/09/17 10:38:35;;;;;;;8.30;6.00;;;25.30;86.90;;;;;;5074384;28;20436;-62
2023/09/17 10:41:05;;;;;;;5.67;5.17;;;25.30;85.10;;;;;;5074008;28;20460;-63
2023/09/17 10:43:35;;;;;;;6.53;5.40;;;25.40;84.30;;;;;;5073914;28;20443;-61
2023/09/17 10:46:05;;;;;;;5.47;4.90;;;25.40;84.10;;;;;;5074195;28;20504;-61
2023/09/17 10:48:33;;;;;;;5.07;4.67;;;25.40;84.40;;;;;;5074178;28;20439;-63
2023/09/17 10:51:00;;;;;;;5.83;5.23;;;25.50;83.40;;;;;;5074026;28;20455;-63
2023/09/17 10:53:27;;;;;;;5.97;5.47;;;25.70;82.50;;;;;;5074097;28;20483;-63
2023/09/17 10:56:00;;;;;;;5.67;4.53;;;25.90;81.40;;;;;;5073758;28;20539;-63
2023/09/17 10:58:31;;;;;;;6.10;5.10;;;26.00;80.10;;;;;;5074090;28;20435;-63
2023/09/17 11:01:01;;;;;;;6.17;5.57;;;26.20;79.20;;;;;;5073892;28;20474;-63
2023/09/17 11:03:31;;;;;;;5.40;4.50;;;26.30;78.10;;;;;;5074343;28;20458;-63
2023/09/17 11:06:01;;;;;;;6.33;5.13;;;26.40;77.20;;;;;;5073332;28;20443;-63
2023/09/17 11:08:28;;;;;;;5.47;4.97;;;26.50;76.30;;;;;;5073673;28;20428;-63
2023/09/17 11:10:55;;;;;;;5.57;4.80;;;26.50;75.80;;;;;;5073220;28;20472;-63
2023/09/17 11:13:23;;;;;;;5.70;5.27;;;26.40;75.80;;;;;;5073415;28;21020;-62
2023/09/17 11:15:54;;;;;;;5.00;4.60;;;26.50;75.70;;;;;;5073924;28;20442;-63
2023/09/17 11:18:22;;;;;;;4.80;4.50;;;26.50;75.50;;;;;;5073762;28;20442;-63
2023/09/17 11:21:00;;;;;;;5.27;4.47;;;26.50;75.20;;;;;;5073216;28;20459;-63
2023/09/17 11:23:43;;;;;;;5.10;4.70;;;26.60;75.00;;;;;;5073136;28;20852;-63
2023/09/17 11:26:12;;;;;;;6.00;5.50;;;26.80;74.60;;;;;;5073523;28;20424;-63
2023/09/17 11:28:40;;;;;;;6.27;5.77;;;27.00;74.00;;;;;;5073360;28;20522;-63
2023/09/17 11:31:09;;;;;;;7.23;6.63;;;27.20;73.30;;;;;;5073614;28;20468;-63
2023/09/17 11:33:38;;;;;;;9.50;8.57;;;27.40;72.60;;;;;;5073378;28;20851;-61
2023/09/17 11:36:06;;;;;;;6.30;5.80;;;27.60;71.90;;;;;;5073363;28;20513;-63
2023/09/17 11:38:33;;;;;;;7.53;6.83;;;27.60;71.10;;;;;;5073392;28;20446;-63
2023/09/17 11:41:08;;;;;;;6.03;5.43;;;27.70;70.50;;;;;;5073564;28;20459;-63
2023/09/17 11:43:37;;;;;;;5.67;5.07;;;27.70;70.10;;;;;;5073109;28;20432;-63
2023/09/17 11:46:05;;;;;;;4.67;4.30;;;27.60;69.70;;;;;;5073059;28;20857;-62
2023/09/17 11:48:34;;;;;;;4.53;4.13;;;27.60;69.40;;;;;;5072848;28;20917;-63
2023/09/17 11:51:22;;;;;;;5.33;4.83;;;27.50;69.10;;;;;;5073153;28;20498;-63
2023/09/17 11:53:50;;;;;;;5.10;4.60;;;27.60;68.80;;;;;;5072714;28;20483;-63
2023/09/17 11:56:17;;;;;;;7.60;4.40;;;27.70;68.40;;;;;;5072435;28;20904;-63
2023/09/17 11:58:44;;;;;;;5.07;4.57;;;27.80;67.90;;;;;;5072806;28;20564;-63
2023/09/17 12:01:11;;;;;;;5.37;4.87;;;28.00;67.50;;;;;;5072733;28;20459;-63
2023/09/17 12:03:38;;;;;;;5.07;4.67;;;28.30;67.00;;;;;;5073034;28;20442;-63
2023/09/17 12:06:05;;;;;;;6.30;4.40;;;28.50;66.00;;;;;;5073432;28;20442;-63
2023/09/17 12:08:33;;;;;;;5.80;5.00;;;28.70;65.20;;;;;;5072986;28;20446;-63
2023/09/17 12:11:06;;;;;;;5.30;4.80;;;28.80;64.50;;;;;;5072567;28;20472;-63
2023/09/17 12:13:34;;;;;;;5.20;4.70;;;28.90;64.00;;;;;;5072698;28;20999;-63
2023/09/17 12:16:02;;;;;;;4.20;3.90;;;28.80;63.50;;;;;;5072762;28;20444;-63
2023/09/17 12:18:29;;;;;;;4.80;4.40;;;28.70;63.40;;;;;;5072650;28;20534;-63
2023/09/17 12:20:59;;;;;;;4.93;4.10;;;28.60;63.40;;;;;;5072820;28;20459;-63
2023/09/17 12:23:37;;;;;;;4.57;3.80;;;28.50;63.60;;;;;;5072790;28;20505;-63
2023/09/17 12:26:05;;;;;;;4.77;4.37;;;28.50;63.60;;;;;;5072813;28;20442;-63
2023/09/17 12:28:32;;;;;;;5.33;4.60;;;28.50;63.50;;;;;;5072622;28;20474;-63
2023/09/17 12:30:59;;;;;;;6.27;4.40;;;28.50;63.50;;;;;;5073188;28;20466;-63
2023/09/17 12:33:26;;;;;;;4.13;3.83;;;28.60;63.40;;;;;;5077010;28;20487;-63
2023/09/17 12:35:53;;;;;;;4.73;4.13;;;28.60;63.10;;;;;;5078830;28;20893;-63
2023/09/17 12:38:20;;;;;;;4.70;4.30;;;28.70;62.60;;;;;;5078543;28;20497;-64
2023/09/17 12:40:47;;;;;;;4.17;3.70;;;28.80;62.60;;;;;;5079090;28;20459;-63
2023/09/17 12:43:15;;;;;;;3.90;3.60;;;28.90;62.20;;;;;;5080169;28;20450;-63